Time;durP1;ratioP1;P1;durP2;ratioP2;P2;SDS_P1;SDS_P2;PMS_P1;PMS_P2;Temp;Humidity;BMP_temperature;BMP_pressure;BME280_temperature;BME280_humidity;BME280_pressure;Samples;Min_cycle;Max_cycle;Signal;HPM_P1;HPM_P2
2021/03/29 16:11:10;;;;;;;5.75;3.60;;;21.70;62.90;;;;;;6318608;27;20384;-84
2021/03/29 16:14:11;;;;;;;5.45;2.70;;;;;;;;;;6301604;28;20082;-87
2021/03/29 16:17:15;;;;;;;4.22;2.67;;;21.70;61.30;;;;;;6324969;28;20020;-86
2021/03/29 16:20:16;;;;;;;8.85;4.30;;;;;;;;;;6308133;28;20024;-86
2021/03/29 16:23:17;;;;;;;3.78;2.45;;;21.80;47.70;;;;;;6319211;28;20444;-86
2021/03/29 16:26:22;;;;;;;4.28;2.78;;;;;;;;;;6313928;28;20084;-85
2021/03/29 16:29:23;;;;;;;5.32;2.90;;;;;;;;;;6312403;28;20467;-86
2021/03/29 16:32:24;;;;;;;5.20;3.03;;;20.90;40.50;;;;;;6319003;28;20449;-89
2021/03/29 16:35:26;;;;;;;3.25;2.85;;;;;;;;;;6303844;28;20044;-88
2021/03/29 16:38:29;;;;;;;9.20;3.28;;;21.30;43.00;;;;;;6306388;28;20253;-88
2021/03/29 16:41:30;;;;;;;5.28;2.90;;;21.10;43.90;;;;;;6302637;28;20035;-84
2021/03/29 16:44:31;;;;;;;4.65;3.17;;;21.10;42.90;;;;;;6297494;28;20077;-84
2021/03/29 16:47:31;;;;;;;4.93;3.20;;;20.80;42.50;;;;;;6325681;28;20106;-86
2021/03/29 16:50:32;;;;;;;8.85;4.88;;;20.80;44.60;;;;;;6303347;28;20079;-84
2021/03/29 16:53:32;;;;;;;7.32;3.45;;;20.60;35.30;;;;;;6302644;28;20027;-86
2021/03/29 16:56:33;;;;;;;3.50;2.90;;;20.40;35.80;;;;;;6305109;28;20090;-86
2021/03/29 16:59:34;;;;;;;6.55;3.20;;;20.40;35.00;;;;;;6298450;28;20094;-83
2021/03/29 17:02:35;;;;;;;5.47;2.78;;;20.30;36.10;;;;;;6304480;28;20028;-84
2021/03/29 17:05:35;;;;;;;5.03;3.00;;;20.10;35.10;;;;;;6334897;28;20102;-83
2021/03/29 17:08:36;;;;;;;6.10;3.05;;;19.90;35.80;;;;;;6334310;28;20131;-86
2021/03/29 17:11:37;;;;;;;4.18;2.85;;;;;;;;;;6321700;28;20036;-83
2021/03/29 17:14:37;;;;;;;4.68;3.15;;;19.40;35.90;;;;;;6302842;28;20473;-83
2021/03/29 17:17:38;;;;;;;5.05;2.90;;;19.10;37.00;;;;;;6297387;28;20106;-85
2021/03/29 17:20:39;;;;;;;4.82;3.05;;;19.00;37.70;;;;;;6319116;28;20017;-84
2021/03/29 17:23:40;;;;;;;4.60;3.17;;;18.70;39.70;;;;;;6306839;28;20028;-85
2021/03/29 17:26:40;;;;;;;4.40;3.50;;;18.30;41.20;;;;;;6317533;28;20027;-85
2021/03/29 17:29:41;;;;;;;5.70;3.50;;;18.10;41.70;;;;;;6285777;28;20438;-84
2021/03/29 17:32:42;;;;;;;6.35;3.85;;;17.90;42.20;;;;;;6288165;28;20028;-84
2021/03/29 17:35:43;;;;;;;5.50;3.55;;;17.60;42.30;;;;;;6278792;28;20028;-85
2021/03/29 17:38:43;;;;;;;6.10;3.47;;;17.60;42.90;;;;;;6291565;28;20028;-84
2021/03/29 17:41:44;;;;;;;4.82;3.42;;;17.20;43.10;;;;;;6285635;28;20111;-84
2021/03/29 17:44:44;;;;;;;5.03;3.55;;;17.10;45.40;;;;;;6305493;28;20105;-83
2021/03/29 17:47:45;;;;;;;10.40;4.18;;;16.90;43.30;;;;;;6272280;28;20457;-85
2021/03/29 17:50:47;;;;;;;5.30;3.92;;;16.90;45.10;;;;;;6285337;28;20492;-83
2021/03/29 17:53:47;;;;;;;5.80;4.30;;;16.60;44.10;;;;;;6274873;28;20122;-81
2021/03/29 17:56:48;;;;;;;5.28;3.85;;;16.40;45.50;;;;;;6295871;28;20447;-82
2021/03/29 17:59:49;;;;;;;4.88;3.70;;;16.20;46.00;;;;;;6296587;28;20141;-81
2021/03/29 18:02:49;;;;;;;5.25;3.65;;;15.90;46.30;;;;;;6303875;28;20097;-85
2021/03/29 18:05:50;;;;;;;4.72;3.80;;;15.70;46.30;;;;;;6301397;28;20021;-83
2021/03/29 18:08:50;;;;;;;10.90;4.78;;;15.50;46.80;;;;;;6284859;28;20056;-82
2021/03/29 18:11:51;;;;;;;6.65;4.78;;;15.30;49.50;;;;;;6290173;28;20029;-81
2021/03/29 18:14:52;;;;;;;8.00;4.95;;;15.20;49.90;;;;;;6304802;28;20028;-82
2021/03/29 18:17:52;;;;;;;7.00;4.47;;;15.10;51.40;;;;;;6286420;28;20050;-82
2021/03/29 18:20:55;;;;;;;7.22;4.72;;;14.80;52.90;;;;;;6286076;28;20035;-82
2021/03/29 18:23:56;;;;;;;6.90;4.50;;;14.60;52.50;;;;;;6280068;28;20029;-82
2021/03/29 18:26:58;;;;;;;8.20;4.68;;;14.50;50.30;;;;;;6293814;28;20374;-82
2021/03/29 18:29:58;;;;;;;13.13;5.27;;;14.50;51.60;;;;;;6265568;28;20047;-85
2021/03/29 18:33:00;;;;;;;5.60;3.45;;;14.50;52.20;;;;;;6295538;28;20032;-82
2021/03/29 18:36:01;;;;;;;8.45;4.18;;;14.40;49.70;;;;;;6293055;28;20051;-82
2021/03/29 18:39:01;;;;;;;5.03;3.85;;;14.50;50.80;;;;;;6301131;28;20036;-85
2021/03/29 18:42:02;;;;;;;11.23;4.28;;;14.90;50.10;;;;;;6300985;28;20115;-82
2021/03/29 18:45:04;;;;;;;4.40;3.80;;;14.30;50.30;;;;;;6289699;28;20568;-82
2021/03/29 18:48:05;;;;;;;6.10;4.22;;;14.10;49.00;;;;;;6283255;28;20085;-81
2021/03/29 18:51:07;;;;;;;6.40;3.95;;;13.70;49.90;;;;;;6300916;28;20044;-85
2021/03/29 18:54:09;;;;;;;8.38;4.65;;;13.50;49.90;;;;;;6317860;28;20018;-84
2021/03/29 18:57:10;;;;;;;10.98;4.32;;;13.40;52.10;;;;;;6287800;28;20127;-79
2021/03/29 19:00:11;;;;;;;10.63;4.97;;;13.40;53.90;;;;;;6311451;28;20078;-87
2021/03/29 19:03:12;;;;;;;6.50;4.28;;;13.50;54.10;;;;;;6292257;28;20140;-83
2021/03/29 19:06:12;;;;;;;6.60;4.85;;;13.30;57.00;;;;;;6287370;28;20025;-84
2021/03/29 19:09:18;;;;;;;10.23;4.82;;;13.00;56.70;;;;;;6306180;28;20131;-83
2021/03/29 19:12:19;;;;;;;11.02;5.50;;;12.80;54.10;;;;;;6306106;28;20125;-82
2021/03/29 19:15:21;;;;;;;7.65;4.32;;;12.40;58.80;;;;;;6285321;28;20021;-82
2021/03/29 19:18:21;;;;;;;12.03;6.77;;;12.30;57.40;;;;;;6305796;28;20767;-84
2021/03/29 19:21:22;;;;;;;12.60;8.07;;;;;;;;;;6305666;28;20013;-82
2021/03/29 19:24:25;;;;;;;11.48;7.32;;;11.90;58.00;;;;;;6303169;28;20020;-81
2021/03/29 19:27:27;;;;;;;8.10;5.88;;;12.40;65.00;;;;;;6279711;28;20036;-82
2021/03/29 19:30:27;;;;;;;10.00;4.85;;;11.60;64.40;;;;;;6284497;28;20083;-82
2021/03/29 19:33:28;;;;;;;6.05;4.32;;;11.60;64.00;;;;;;6289154;28;20028;-83
2021/03/29 19:36:30;;;;;;;8.05;5.63;;;11.60;61.40;;;;;;6294654;28;20056;-84
2021/03/29 19:39:30;;;;;;;6.05;4.55;;;11.60;62.10;;;;;;6308185;28;20085;-86
2021/03/29 19:42:31;;;;;;;11.55;6.00;;;11.60;61.30;;;;;;6285383;28;20032;-82
2021/03/29 19:45:32;;;;;;;9.20;6.13;;;11.20;83.50;;;;;;6302010;28;20041;-82
2021/03/29 19:48:32;;;;;;;8.60;4.97;;;11.10;81.00;;;;;;6304185;28;20108;-85
2021/03/29 19:51:34;;;;;;;7.97;4.53;;;10.90;77.20;;;;;;6306685;28;20113;-85
2021/03/29 19:54:35;;;;;;;6.93;4.67;;;10.90;73.60;;;;;;6284705;28;20016;-82
2021/03/29 19:57:36;;;;;;;5.78;3.92;;;11.20;73.70;;;;;;6287448;28;20028;-84
2021/03/29 20:00:37;;;;;;;5.90;3.63;;;11.30;87.00;;;;;;6308276;28;20433;-81
2021/03/29 20:03:38;;;;;;;5.35;3.85;;;11.20;87.70;;;;;;6303536;28;20040;-85
2021/03/29 20:09:55;;;;;;;5.95;3.97;;;10.90;75.00;;;;;;6301546;28;20573;-81
2021/03/29 20:12:59;;;;;;;5.03;3.60;;;11.00;83.00;;;;;;6289423;28;20487;-81
2021/03/29 20:16:00;;;;;;;5.75;3.42;;;10.80;80.10;;;;;;6302846;28;20039;-82
2021/03/29 20:19:00;;;;;;;6.43;4.25;;;10.60;79.60;;;;;;6304475;28;20028;-83
2021/03/29 20:22:01;;;;;;;8.55;5.15;;;10.70;92.20;;;;;;6299077;28;20506;-82
2021/03/29 20:25:02;;;;;;;6.03;4.20;;;;;;;;;;6276912;28;20111;-82
2021/03/29 20:28:04;;;;;;;5.90;4.80;;;10.60;76.50;;;;;;6283643;28;20016;-82
2021/03/29 20:31:04;;;;;;;6.45;4.60;;;10.00;90.30;;;;;;6302275;28;20040;-85
2021/03/29 20:34:13;;;;;;;9.27;5.00;;;;;;;;;;6302474;28;20495;-83
2021/03/29 20:37:14;;;;;;;7.40;4.30;;;10.00;87.30;;;;;;6292378;28;20373;-85
2021/03/29 20:40:16;;;;;;;9.55;4.50;;;9.80;82.00;;;;;;6292435;28;20021;-83
2021/03/29 20:43:17;;;;;;;8.48;4.50;;;;;;;;;;6296303;28;20032;-82
2021/03/29 20:46:40;;;;;;;8.45;4.38;;;9.70;75.50;;;;;;6291466;28;20024;-86
2021/03/29 20:49:41;;;;;;;8.05;4.25;;;;;;;;;;6280077;28;20036;-88
2021/03/29 20:52:42;;;;;;;5.97;3.97;;;9.80;81.70;;;;;;6298213;28;20024;-87
2021/03/29 20:55:43;;;;;;;6.40;3.90;;;;;;;;;;6296815;28;20031;-85
2021/03/29 20:58:44;;;;;;;7.07;4.80;;;;;;;;;;6309321;28;20143;-86
2021/03/29 21:01:44;;;;;;;7.68;5.65;;;9.60;92.00;;;;;;6288569;28;20346;-86
2021/03/29 21:04:45;;;;;;;5.88;4.40;;;;;;;;;;6293877;28;20051;-87
2021/03/29 21:07:49;;;;;;;10.35;5.40;;;9.70;76.70;;;;;;6297561;28;20420;-85
2021/03/29 21:10:50;;;;;;;8.20;4.90;;;9.70;80.00;;;;;;6302301;28;20056;-85
2021/03/29 21:13:51;;;;;;;7.43;4.57;;;;;;;;;;6319773;28;20058;-91
2021/03/29 21:16:52;;;;;;;5.68;4.03;;;;;;;;;;6291580;28;20019;-91
2021/03/29 21:19:53;;;;;;;6.50;4.07;;;9.50;81.80;;;;;;6297517;28;20020;-86
2021/03/29 21:22:59;;;;;;;7.75;4.40;;;9.50;69.30;;;;;;6282886;28;20527;-92
2021/03/29 21:25:59;;;;;;;7.95;4.60;;;9.70;89.50;;;;;;6294098;28;20028;-85
2021/03/29 21:29:00;;;;;;;8.95;4.15;;;9.10;70.60;;;;;;6300415;28;20125;-84
2021/03/29 21:32:01;;;;;;;4.00;3.38;;;;;;;;;;6297076;28;20115;-84
2021/03/29 21:35:05;;;;;;;5.32;3.60;;;9.00;89.40;;;;;;6318498;28;20024;-84
2021/03/29 21:38:06;;;;;;;5.95;3.72;;;9.00;89.80;;;;;;6305319;28;20108;-84
2021/03/29 21:41:07;;;;;;;5.32;3.60;;;;;;;;;;6296444;28;20362;-84
2021/03/29 21:44:08;;;;;;;5.57;3.63;;;9.10;88.30;;;;;;6294867;28;20103;-84
2021/03/29 21:47:09;;;;;;;6.40;4.00;;;8.80;86.40;;;;;;6279359;28;20496;-84
2021/03/29 21:50:10;;;;;;;7.60;4.45;;;9.30;69.80;;;;;;6304637;28;20089;-84
2021/03/29 21:53:11;;;;;;;5.57;3.58;;;8.90;87.30;;;;;;6312455;28;20024;-85
2021/03/29 21:56:11;;;;;;;5.47;3.78;;;8.90;83.50;;;;;;6303964;28;20031;-85
2021/03/29 21:59:12;;;;;;;6.28;3.90;;;9.20;70.00;;;;;;6313743;28;20491;-84
2021/03/29 22:02:14;;;;;;;5.75;3.38;;;9.10;68.90;;;;;;6282268;28;20020;-82
2021/03/29 22:05:15;;;;;;;5.60;3.20;;;9.50;66.40;;;;;;6303883;28;20474;-82
2021/03/29 22:08:16;;;;;;;4.30;3.25;;;9.20;85.30;;;;;;6303689;28;20024;-84
2021/03/29 22:11:17;;;;;;;6.75;3.42;;;9.20;67.30;;;;;;6287414;28;20110;-83
2021/03/29 22:14:21;;;;;;;6.70;3.90;;;9.20;67.10;;;;;;6304754;28;20025;-83
2021/03/29 22:17:21;;;;;;;4.13;3.40;;;9.10;68.20;;;;;;6286012;28;20047;-84
2021/03/29 22:20:22;;;;;;;5.10;3.40;;;;;;;;;;6304175;28;20546;-86
2021/03/29 22:23:24;;;;;;;8.05;4.68;;;9.10;69.50;;;;;;6286717;28;20060;-84
2021/03/29 22:26:25;;;;;;;5.45;3.95;;;8.20;89.40;;;;;;6305538;28;20054;-85
2021/03/29 22:29:31;;;;;;;5.88;4.40;;;8.20;72.70;;;;;;6305596;28;20496;-85
2021/03/29 22:32:57;;;;;;;6.32;3.97;;;8.30;71.70;;;;;;6306000;28;20028;-86
2021/03/29 22:42:48;;;;;;;6.10;3.83;;;8.60;85.20;;;;;;6313424;27;20763;-84
2021/03/29 22:45:51;;;;;;;5.40;3.30;;;8.80;89.00;;;;;;6313840;28;20119;-83
2021/03/29 22:48:52;;;;;;;10.57;3.70;;;8.20;74.20;;;;;;6279158;28;20099;-84
2021/03/29 22:51:52;;;;;;;5.80;3.72;;;8.80;90.40;;;;;;6295433;28;20659;-85
2021/03/29 22:54:53;;;;;;;5.50;3.50;;;8.40;74.10;;;;;;6295428;28;20024;-83
2021/03/29 22:57:54;;;;;;;5.88;3.83;;;8.30;74.70;;;;;;6295425;28;20112;-82
2021/03/29 23:00:54;;;;;;;9.90;4.45;;;8.20;77.50;;;;;;6312733;28;20043;-86
2021/03/29 23:03:55;;;;;;;6.57;4.25;;;7.80;78.30;;;;;;6312203;28;20036;-85
2021/03/29 23:06:56;;;;;;;5.50;3.50;;;8.00;77.10;;;;;;6295409;28;20478;-85
2021/03/29 23:09:56;;;;;;;4.60;3.17;;;8.90;78.40;;;;;;6295170;28;20016;-85
2021/03/29 23:12:57;;;;;;;8.35;4.68;;;8.40;77.50;;;;;;6295622;28;20040;-84
2021/03/29 23:15:57;;;;;;;8.32;3.67;;;8.20;78.80;;;;;;6295728;28;20047;-85
2021/03/29 23:18:58;;;;;;;4.53;3.25;;;8.40;79.90;;;;;;6295470;28;20032;-85
2021/03/29 23:21:59;;;;;;;4.20;3.40;;;;;;;;;;6294749;28;20442;-86
2021/03/29 23:25:00;;;;;;;8.70;4.07;;;7.90;74.40;;;;;;6295622;28;20035;-84
2021/03/29 23:28:00;;;;;;;6.28;3.58;;;7.80;80.10;;;;;;6312206;28;20512;-85
2021/03/29 23:31:01;;;;;;;6.28;3.90;;;7.60;82.70;;;;;;6312085;28;20119;-85
2021/03/29 23:34:02;;;;;;;4.88;3.65;;;7.60;81.50;;;;;;6311949;28;20402;-85
2021/03/29 23:37:03;;;;;;;6.80;3.50;;;7.10;82.80;;;;;;6295235;28;20025;-84
2021/03/29 23:40:04;;;;;;;5.78;3.85;;;7.40;81.80;;;;;;6294645;28;20068;-85
2021/03/29 23:43:05;;;;;;;7.38;3.83;;;7.60;81.90;;;;;;6295695;28;20574;-85
2021/03/29 23:46:05;;;;;;;4.88;3.28;;;7.30;84.10;;;;;;6278085;28;20025;-85
2021/03/29 23:49:06;;;;;;;4.20;3.70;;;7.70;84.80;;;;;;6294712;28;20059;-86
2021/03/29 23:52:07;;;;;;;3.85;3.45;;;7.40;84.00;;;;;;6288833;28;20032;-85
2021/03/29 23:55:08;;;;;;;5.85;3.63;;;8.30;85.70;;;;;;6260874;28;20035;-85
2021/03/29 23:58:08;;;;;;;7.72;4.10;;;7.40;85.20;;;;;;6261528;28;20020;-85
